Time;durP1;ratioP1;P1;durP2;ratioP2;P2;SDS_P1;SDS_P2;PMS_P1;PMS_P2;Temp;Humidity;BMP_temperature;BMP_pressure;BME280_temperature;BME280_humidity;BME280_pressure;Samples;Min_cycle;Max_cycle;Signal;HPM_P1;HPM_P2
2021/05/17 00:00:48;;;;;;;1.27;0.70;;;10.70;80.40;;;;;;5047096;28;20040;-73
2021/05/17 00:03:15;;;;;;;0.50;0.50;;;10.70;80.30;;;;;;5051259;28;20020;-73
2021/05/17 00:05:41;;;;;;;1.45;0.73;;;10.70;80.50;;;;;;5051915;28;20028;-73
2021/05/17 00:08:07;;;;;;;0.50;0.50;;;10.70;80.50;;;;;;5046121;28;20503;-73
2021/05/17 00:10:34;;;;;;;0.60;0.50;;;10.70;80.60;;;;;;5065317;28;20404;-73
2021/05/17 00:12:59;;;;;;;0.60;0.60;;;10.70;80.70;;;;;;5052020;28;20400;-73
2021/05/17 00:15:25;;;;;;;0.70;0.52;;;10.70;80.70;;;;;;5047815;28;20021;-73
2021/05/17 00:17:52;;;;;;;1.70;0.60;;;10.80;80.90;;;;;;5040848;28;20123;-73
2021/05/17 00:20:18;;;;;;;0.43;0.40;;;10.80;80.90;;;;;;5069658;28;20503;-73
2021/05/17 00:22:45;;;;;;;0.50;0.43;;;10.80;80.80;;;;;;5051286;28;20033;-73
2021/05/17 00:25:11;;;;;;;1.17;0.60;;;10.80;80.80;;;;;;5068720;28;20062;-72
2021/05/17 00:27:37;;;;;;;1.27;0.70;;;10.80;80.90;;;;;;5066650;28;20366;-73
2021/05/17 00:30:05;;;;;;;0.80;0.52;;;10.80;81.00;;;;;;5069083;28;20031;-71
2021/05/17 00:32:31;;;;;;;1.20;0.50;;;10.80;81.00;;;;;;5068221;28;20032;-72
2021/05/17 00:34:57;;;;;;;1.65;0.60;;;10.80;80.80;;;;;;5051016;28;20027;-73
2021/05/17 00:37:23;;;;;;;1.20;0.65;;;10.80;80.90;;;;;;5050769;28;20020;-72
2021/05/17 00:39:49;;;;;;;1.20;0.70;;;10.80;80.70;;;;;;5066884;28;20371;-72
2021/05/17 00:42:15;;;;;;;1.38;0.70;;;10.80;80.80;;;;;;5069656;28;20027;-71
2021/05/17 00:44:42;;;;;;;3.92;0.80;;;10.80;80.90;;;;;;5050447;28;20032;-73
2021/05/17 00:47:11;;;;;;;0.93;0.63;;;10.80;80.90;;;;;;5050598;28;20059;-72
2021/05/17 00:49:38;;;;;;;0.60;0.60;;;10.80;81.00;;;;;;5069062;28;20377;-72
2021/05/17 00:52:04;;;;;;;1.30;0.65;;;10.70;80.90;;;;;;5054092;28;20032;-72
2021/05/17 00:54:30;;;;;;;1.85;0.60;;;10.70;80.90;;;;;;5054001;28;20036;-72
2021/05/17 00:56:56;;;;;;;0.77;0.47;;;10.70;80.90;;;;;;5072679;28;20029;-72
2021/05/17 00:59:21;;;;;;;0.50;0.50;;;10.70;81.00;;;;;;5072703;28;20484;-73
2021/05/17 01:01:47;;;;;;;2.80;0.50;;;10.70;81.10;;;;;;5071910;28;20032;-72
2021/05/17 01:04:12;;;;;;;1.67;0.77;;;10.70;81.10;;;;;;5074714;28;20047;-73
2021/05/17 01:06:40;;;;;;;0.93;0.68;;;10.70;81.10;;;;;;5071385;28;20036;-73
2021/05/17 01:09:08;;;;;;;2.08;0.52;;;10.70;81.20;;;;;;5056797;28;20473;-71
2021/05/17 01:11:34;;;;;;;2.42;0.70;;;10.70;81.10;;;;;;5051561;28;20032;-73
2021/05/17 01:14:03;;;;;;;1.60;0.60;;;10.70;81.10;;;;;;5071678;28;20113;-73
2021/05/17 01:16:29;;;;;;;2.17;0.40;;;10.70;81.10;;;;;;5071786;28;20150;-73
2021/05/17 01:18:55;;;;;;;1.25;0.63;;;10.70;81.10;;;;;;5072555;28;20480;-72
2021/05/17 01:21:23;;;;;;;2.17;0.70;;;10.60;81.10;;;;;;5072059;28;20029;-73
2021/05/17 01:23:56;;;;;;;1.10;0.60;;;10.60;81.20;;;;;;5072300;28;20017;-73
2021/05/17 01:26:27;;;;;;;2.55;0.63;;;10.70;81.40;;;;;;5066759;28;20025;-72
2021/05/17 01:28:57;;;;;;;0.60;0.60;;;10.70;81.40;;;;;;5072297;28;20033;-73
2021/05/17 01:31:23;;;;;;;1.48;0.50;;;10.60;81.30;;;;;;5053128;28;20777;-72
2021/05/17 01:33:49;;;;;;;1.70;0.50;;;10.70;81.30;;;;;;5052630;28;20039;-72
2021/05/17 01:36:16;;;;;;;1.85;0.40;;;10.70;81.20;;;;;;5070542;28;20032;-73
2021/05/17 01:38:48;;;;;;;1.95;0.95;;;10.70;81.20;;;;;;5053024;28;20017;-73
2021/05/17 01:41:16;;;;;;;1.48;0.40;;;10.60;81.20;;;;;;5071297;28;20028;-72
2021/05/17 01:43:47;;;;;;;2.38;0.75;;;10.60;81.10;;;;;;5052675;28;20033;-73
2021/05/17 01:46:20;;;;;;;1.52;0.60;;;10.60;81.30;;;;;;5070454;28;20016;-73
2021/05/17 01:48:46;;;;;;;4.28;0.70;;;10.60;81.20;;;;;;5054075;28;20100;-73
2021/05/17 01:51:17;;;;;;;1.58;0.60;;;10.60;81.10;;;;;;5053838;28;20028;-72
2021/05/17 01:53:44;;;;;;;3.25;0.50;;;10.60;81.30;;;;;;5071682;28;20036;-73
2021/05/17 01:56:11;;;;;;;1.45;0.60;;;10.60;81.30;;;;;;5070386;28;20024;-72
2021/05/17 01:58:37;;;;;;;0.85;0.60;;;10.60;81.40;;;;;;5071030;28;20024;-72
2021/05/17 02:01:08;;;;;;;0.90;0.60;;;10.60;81.30;;;;;;5066006;28;20021;-73
2021/05/17 02:03:36;;;;;;;1.87;0.60;;;10.50;81.40;;;;;;5055966;28;20103;-73
2021/05/17 02:08:30;;;;;;;1.95;0.60;;;10.50;81.30;;;;;;5063819;28;20202;-72
2021/05/17 02:10:57;;;;;;;2.25;0.60;;;10.50;81.40;;;;;;5026930;28;20029;-73
2021/05/17 02:13:25;;;;;;;2.58;0.70;;;10.50;81.40;;;;;;5047005;28;20025;-72
2021/05/17 02:15:51;;;;;;;1.70;0.57;;;10.50;81.50;;;;;;5050569;28;20033;-73
2021/05/17 02:18:17;;;;;;;0.85;0.50;;;10.50;81.50;;;;;;5049806;28;20028;-73
2021/05/17 02:20:44;;;;;;;0.68;0.50;;;10.50;81.50;;;;;;5051223;28;20370;-73
2021/05/17 02:23:13;;;;;;;3.33;0.60;;;10.50;81.50;;;;;;5051545;28;20036;-73
2021/05/17 02:25:43;;;;;;;1.50;0.70;;;10.50;81.60;;;;;;5031765;28;20047;-73
2021/05/17 02:28:09;;;;;;;0.55;0.40;;;10.50;81.70;;;;;;5049708;28;20094;-72
2021/05/17 02:30:36;;;;;;;0.75;0.50;;;10.50;81.60;;;;;;5050711;28;20032;-73
2021/05/17 02:33:03;;;;;;;1.60;0.50;;;10.50;81.60;;;;;;5049382;28;20393;-73
2021/05/17 02:35:29;;;;;;;3.13;0.50;;;10.50;81.60;;;;;;5041215;28;20041;-72
2021/05/17 02:37:55;;;;;;;0.73;0.40;;;10.40;81.40;;;;;;5045343;28;20036;-72
2021/05/17 02:40:21;;;;;;;1.90;0.57;;;10.50;81.50;;;;;;5049416;28;20029;-73
2021/05/17 02:42:48;;;;;;;2.92;0.47;;;10.50;81.50;;;;;;5050726;28;20111;-72
2021/05/17 02:45:16;;;;;;;3.03;0.60;;;10.40;81.40;;;;;;5029501;28;20029;-73
2021/05/17 02:47:42;;;;;;;2.40;0.60;;;10.40;81.40;;;;;;5050700;28;20040;-73
2021/05/17 02:50:11;;;;;;;1.92;0.40;;;10.40;81.50;;;;;;5049436;28;20025;-73
2021/05/17 02:52:38;;;;;;;1.75;0.50;;;10.40;81.40;;;;;;5051160;28;20021;-73
2021/05/17 02:55:14;;;;;;;1.58;0.50;;;10.40;81.40;;;;;;5048409;28;20017;-73
2021/05/17 02:57:45;;;;;;;2.53;0.60;;;10.40;81.60;;;;;;5049936;28;20040;-73
2021/05/17 03:00:13;;;;;;;2.47;0.60;;;10.40;81.40;;;;;;5050019;28;20027;-72
2021/05/17 03:02:43;;;;;;;2.38;0.65;;;10.40;81.60;;;;;;5050472;28;20029;-73
2021/05/17 03:05:09;;;;;;;3.22;0.60;;;10.40;81.60;;;;;;5049139;28;20025;-73
2021/05/17 03:07:37;;;;;;;1.27;0.52;;;10.30;81.50;;;;;;5048674;28;20029;-73
2021/05/17 03:10:04;;;;;;;2.40;0.60;;;10.30;81.50;;;;;;5044177;28;20017;-73
2021/05/17 03:12:35;;;;;;;0.65;0.52;;;10.30;81.60;;;;;;5050214;28;20104;-73
2021/05/17 03:15:01;;;;;;;0.60;0.50;;;10.20;81.60;;;;;;5049185;28;20485;-73
2021/05/17 03:17:27;;;;;;;0.73;0.70;;;10.30;81.70;;;;;;5045027;28;20124;-73
2021/05/17 03:19:53;;;;;;;2.92;0.70;;;10.30;81.70;;;;;;5038879;28;20493;-72
2021/05/17 03:22:22;;;;;;;2.10;0.50;;;10.30;82.30;;;;;;5032102;28;20431;-72
2021/05/17 03:24:51;;;;;;;3.20;0.60;;;10.30;81.90;;;;;;5049823;28;20460;-73
2021/05/17 03:27:24;;;;;;;2.88;0.50;;;10.20;81.90;;;;;;5048618;28;20120;-73
2021/05/17 03:29:51;;;;;;;1.55;0.50;;;10.20;82.20;;;;;;5058234;28;20036;-73
2021/05/17 03:32:17;;;;;;;1.00;0.60;;;10.20;82.10;;;;;;5049003;28;20071;-73
2021/05/17 03:34:43;;;;;;;1.65;0.60;;;10.20;82.00;;;;;;5049375;28;20037;-72
2021/05/17 03:37:09;;;;;;;1.75;0.60;;;10.10;82.00;;;;;;5049941;28;20111;-72
2021/05/17 03:39:36;;;;;;;2.25;0.52;;;10.10;82.10;;;;;;5049681;28;20029;-72
2021/05/17 03:42:01;;;;;;;1.17;0.43;;;10.10;82.30;;;;;;5050047;28;20025;-72
2021/05/17 03:44:28;;;;;;;1.00;0.63;;;10.00;82.40;;;;;;5046960;28;20021;-73
2021/05/17 03:46:54;;;;;;;1.98;0.65;;;10.00;82.50;;;;;;5049140;28;20029;-73
2021/05/17 03:49:19;;;;;;;0.82;0.60;;;10.00;82.60;;;;;;5049647;28;20065;-73
2021/05/17 03:51:45;;;;;;;1.40;0.60;;;10.00;82.70;;;;;;5049744;28;20029;-72
2021/05/17 03:54:10;;;;;;;1.67;0.50;;;10.00;82.80;;;;;;5049261;28;20500;-72
2021/05/17 03:56:36;;;;;;;2.15;0.50;;;10.00;82.80;;;;;;5050618;28;20124;-72
2021/05/17 03:59:03;;;;;;;1.48;0.47;;;10.00;82.80;;;;;;5049608;28;20037;-72
2021/05/17 04:01:28;;;;;;;1.17;0.40;;;9.90;82.90;;;;;;5046620;28;20052;-72
2021/05/17 04:03:55;;;;;;;1.45;0.40;;;9.90;83.00;;;;;;5044592;28;20021;-72
2021/05/17 04:14:52;;;;;;;1.27;0.43;;;9.90;82.90;;;;;;5042202;28;20106;-73
2021/05/17 04:17:17;;;;;;;0.63;0.60;;;9.90;83.00;;;;;;5049712;28;20081;-73
2021/05/17 04:19:43;;;;;;;0.85;0.50;;;9.90;83.10;;;;;;5049325;28;20053;-72
2021/05/17 04:22:08;;;;;;;2.30;0.55;;;9.90;83.00;;;;;;5042284;28;20036;-72
2021/05/17 04:24:34;;;;;;;1.63;0.45;;;9.90;83.10;;;;;;5048379;28;20550;-72
2021/05/17 04:27:00;;;;;;;1.42;0.57;;;9.90;83.10;;;;;;5052511;28;20423;-72
2021/05/17 04:29:26;;;;;;;3.17;0.43;;;9.90;83.20;;;;;;5053344;28;20053;-72
2021/05/17 04:31:52;;;;;;;1.20;0.47;;;9.90;83.20;;;;;;5054755;28;20115;-72
2021/05/17 04:34:19;;;;;;;0.88;0.60;;;9.90;83.20;;;;;;5051557;28;20021;-72
2021/05/17 04:36:44;;;;;;;0.70;0.70;;;9.90;83.30;;;;;;5052411;28;20090;-72
2021/05/17 04:39:10;;;;;;;0.93;0.50;;;9.90;83.30;;;;;;5034812;28;20032;-72
2021/05/17 04:41:36;;;;;;;1.17;0.55;;;9.90;83.80;;;;;;5034507;28;20734;-72
2021/05/17 04:44:01;;;;;;;1.00;0.60;;;9.90;83.30;;;;;;5046572;28;20024;-72
2021/05/17 04:46:27;;;;;;;0.82;0.52;;;9.90;83.20;;;;;;5052759;28;20029;-73
2021/05/17 04:48:52;;;;;;;0.93;0.50;;;9.90;83.30;;;;;;5052476;28;20047;-72
2021/05/17 04:51:20;;;;;;;0.40;0.40;;;10.00;83.30;;;;;;5051656;28;20036;-72
2021/05/17 04:53:46;;;;;;;0.50;0.50;;;9.90;83.20;;;;;;5053056;28;20029;-72
2021/05/17 04:56:12;;;;;;;1.92;0.40;;;9.90;83.20;;;;;;5051706;28;20029;-72
2021/05/17 04:58:37;;;;;;;0.60;0.50;;;9.90;83.20;;;;;;5052612;28;20094;-72
2021/05/17 05:01:04;;;;;;;1.52;1.00;;;9.90;83.20;;;;;;5034662;28;20045;-72
2021/05/17 05:03:31;;;;;;;1.13;0.85;;;9.90;83.30;;;;;;5036273;28;20363;-72
2021/05/17 05:05:57;;;;;;;2.00;0.70;;;9.90;83.20;;;;;;5051382;28;20032;-72
2021/05/17 05:08:23;;;;;;;1.50;0.60;;;9.90;83.00;;;;;;5052432;28;20421;-73
2021/05/17 05:10:49;;;;;;;2.10;0.52;;;9.90;82.90;;;;;;5050906;28;20032;-72
2021/05/17 05:13:14;;;;;;;0.88;0.70;;;9.90;83.00;;;;;;5052071;28;20029;-69
2021/05/17 05:15:40;;;;;;;1.38;0.60;;;9.80;82.90;;;;;;5050308;28;20033;-72
2021/05/17 05:18:05;;;;;;;1.95;0.77;;;9.80;83.00;;;;;;5052186;28;20021;-71
2021/05/17 05:20:31;;;;;;;1.63;0.68;;;9.80;83.20;;;;;;5052277;28;20048;-72
2021/05/17 05:22:57;;;;;;;1.05;0.52;;;9.80;83.30;;;;;;5047856;28;20496;-71
2021/05/17 05:25:27;;;;;;;1.02;0.50;;;9.80;83.40;;;;;;5048355;28;20188;-71
2021/05/17 05:27:54;;;;;;;1.55;0.47;;;9.80;83.30;;;;;;5051141;28;20028;-71
2021/05/17 05:32:55;;;;;;;0.85;0.47;;;9.70;83.40;;;;;;5047921;28;20029;-73
2021/05/17 05:35:21;;;;;;;1.30;0.40;;;9.70;83.50;;;;;;5050925;28;20036;-71
2021/05/17 05:37:47;;;;;;;0.98;0.65;;;9.60;83.60;;;;;;5050872;28;20036;-71
2021/05/17 05:40:12;;;;;;;1.58;0.60;;;9.60;83.80;;;;;;5051486;28;20033;-72
2021/05/17 05:42:38;;;;;;;2.05;0.80;;;9.60;84.00;;;;;;5052049;28;20048;-72
2021/05/17 05:45:10;;;;;;;1.35;0.80;;;9.60;84.20;;;;;;5045849;28;20031;-71
2021/05/17 05:47:36;;;;;;;1.52;0.68;;;9.60;84.60;;;;;;5030049;28;20029;-72
2021/05/17 05:50:02;;;;;;;1.10;0.60;;;9.60;84.30;;;;;;5051911;28;20094;-72
2021/05/17 05:52:28;;;;;;;3.55;0.60;;;9.70;84.40;;;;;;5051896;28;20032;-72
2021/05/17 05:54:54;;;;;;;3.65;0.70;;;9.80;84.40;;;;;;5050720;28;20100;-72
2021/05/17 05:57:19;;;;;;;0.70;0.60;;;9.90;84.40;;;;;;5051639;28;20071;-72
2021/05/17 05:59:45;;;;;;;2.95;0.55;;;9.90;84.30;;;;;;5050282;28;20040;-72
2021/05/17 06:02:11;;;;;;;1.40;0.60;;;9.90;84.40;;;;;;5048745;28;20389;-72
2021/05/17 06:04:36;;;;;;;0.57;0.57;;;9.90;84.50;;;;;;5026745;28;20068;-71
2021/05/17 06:07:02;;;;;;;0.88;0.60;;;9.90;84.50;;;;;;5049548;28;20103;-72
2021/05/17 06:09:28;;;;;;;1.00;0.50;;;9.90;84.50;;;;;;5050404;28;20048;-70
2021/05/17 06:11:55;;;;;;;3.22;0.70;;;10.00;84.60;;;;;;5047514;28;20114;-70
2021/05/17 06:14:22;;;;;;;0.70;0.45;;;10.00;84.60;;;;;;5049311;28;20029;-71
2021/05/17 06:16:48;;;;;;;1.27;0.60;;;10.10;84.40;;;;;;5049333;28;20021;-71
2021/05/17 06:19:14;;;;;;;1.48;0.50;;;10.20;84.20;;;;;;5050767;28;20520;-70
2021/05/17 06:21:40;;;;;;;1.63;0.40;;;10.50;84.00;;;;;;5051320;28;20195;-71
2021/05/17 06:24:08;;;;;;;0.90;0.40;;;10.80;83.70;;;;;;5049205;28;20149;-72
2021/05/17 06:26:34;;;;;;;0.95;0.50;;;10.90;83.80;;;;;;5047776;28;20040;-70
2021/05/17 06:29:00;;;;;;;2.55;0.52;;;11.00;83.60;;;;;;5050861;28;20028;-70
2021/05/17 06:31:26;;;;;;;0.70;0.70;;;11.00;83.40;;;;;;5048882;28;20032;-70
2021/05/17 06:33:52;;;;;;;2.22;0.50;;;11.00;83.20;;;;;;5036837;28;20500;-70
2021/05/17 06:36:18;;;;;;;0.40;0.40;;;11.00;83.00;;;;;;5050914;28;20425;-71
2021/05/17 06:38:44;;;;;;;1.85;0.52;;;11.00;83.00;;;;;;5052128;28;20035;-72
2021/05/17 06:41:10;;;;;;;2.97;0.40;;;11.00;83.10;;;;;;5051847;28;20385;-71
2021/05/17 06:43:36;;;;;;;2.78;0.47;;;10.90;82.80;;;;;;5050819;28;20096;-71
2021/05/17 06:46:08;;;;;;;1.65;0.43;;;10.90;82.70;;;;;;5032558;28;20499;-70
2021/05/17 06:48:42;;;;;;;2.00;0.35;;;10.80;82.80;;;;;;5050294;28;20049;-70
2021/05/17 06:51:13;;;;;;;0.75;0.40;;;10.80;82.80;;;;;;5051393;28;20500;-70
2021/05/17 06:53:40;;;;;;;1.25;0.50;;;10.70;83.00;;;;;;5050632;28;20098;-70
2021/05/17 06:56:09;;;;;;;0.35;0.35;;;10.70;83.10;;;;;;5050453;28;20104;-70
2021/05/17 06:58:46;;;;;;;2.03;0.45;;;10.70;83.00;;;;;;5050656;28;20396;-70
2021/05/17 07:01:13;;;;;;;1.65;0.47;;;10.70;83.10;;;;;;5031537;28;20025;-70
2021/05/17 07:03:39;;;;;;;1.02;0.35;;;10.70;83.10;;;;;;5050857;28;20120;-72
2021/05/17 07:06:06;;;;;;;0.82;0.30;;;10.70;83.00;;;;;;5032167;28;20029;-73
2021/05/17 07:11:36;;;;;;;1.63;0.50;;;10.60;82.50;;;;;;5050521;28;20040;-71
2021/05/17 07:14:02;;;;;;;0.75;0.40;;;10.60;82.10;;;;;;5050031;28;20025;-72
2021/05/17 07:16:28;;;;;;;0.80;0.30;;;10.50;82.00;;;;;;5050479;28;20036;-72
2021/05/17 07:18:53;;;;;;;2.20;0.52;;;10.40;82.10;;;;;;5050638;28;20052;-72
2021/05/17 07:23:45;;;;;;;2.70;0.52;;;10.20;82.70;;;;;;5050875;28;20025;-72
2021/05/17 07:26:16;;;;;;;4.68;0.30;;;10.20;82.90;;;;;;5047833;28;20027;-72
2021/05/17 07:28:44;;;;;;;1.90;0.43;;;10.10;83.60;;;;;;5047491;28;20454;-72
2021/05/17 07:31:10;;;;;;;0.65;0.47;;;10.10;83.00;;;;;;5031646;28;20036;-72
2021/05/17 07:33:40;;;;;;;2.58;0.50;;;10.10;83.10;;;;;;5030046;28;20025;-73
2021/05/17 07:36:06;;;;;;;1.85;0.75;;;10.10;83.30;;;;;;5016628;28;20711;-72
2021/05/17 07:38:32;;;;;;;1.40;0.40;;;10.10;83.40;;;;;;5050357;28;20108;-72
2021/05/17 07:41:00;;;;;;;0.98;0.40;;;10.10;83.30;;;;;;5049063;28;20388;-72
2021/05/17 07:43:26;;;;;;;0.75;0.40;;;10.20;83.30;;;;;;5049740;28;20487;-72
2021/05/17 07:45:52;;;;;;;1.67;0.52;;;10.30;83.20;;;;;;5048954;28;20021;-72
2021/05/17 07:48:20;;;;;;;0.50;0.40;;;10.40;83.20;;;;;;5050128;28;20104;-73
2021/05/17 07:50:46;;;;;;;1.83;0.68;;;10.50;83.00;;;;;;5049948;28;20039;-73
2021/05/17 07:53:12;;;;;;;1.27;0.43;;;10.80;82.80;;;;;;5045802;28;20041;-73
2021/05/17 07:55:39;;;;;;;1.48;0.40;;;12.10;81.00;;;;;;5046404;28;20020;-73
2021/05/17 07:58:05;;;;;;;0.55;0.22;;;12.50;80.20;;;;;;5048832;28;20029;-72
2021/05/17 08:00:31;;;;;;;1.08;0.43;;;12.40;79.90;;;;;;5034282;28;20108;-73
2021/05/17 08:02:57;;;;;;;1.05;0.30;;;12.40;79.60;;;;;;5052008;28;20029;-73
2021/05/17 08:05:22;;;;;;;2.00;0.43;;;12.40;79.70;;;;;;5053071;28;20071;-72
2021/05/17 08:07:48;;;;;;;1.50;0.45;;;12.30;80.00;;;;;;5060728;22;20045;-71
2021/05/17 08:10:14;;;;;;;1.23;0.30;;;12.20;79.90;;;;;;5030993;28;20022;-70
2021/05/17 08:12:40;;;;;;;4.47;0.43;;;12.10;79.60;;;;;;5033600;28;20029;-71
2021/05/17 08:15:06;;;;;;;1.88;0.30;;;12.00;79.50;;;;;;5032190;28;20022;-70
2021/05/17 08:17:32;;;;;;;1.55;0.32;;;12.00;79.40;;;;;;5015892;28;20025;-70
2021/05/17 08:19:58;;;;;;;3.80;0.88;;;12.00;79.40;;;;;;5033768;28;20128;-70
2021/05/17 08:22:24;;;;;;;1.45;0.30;;;12.00;79.40;;;;;;5033144;28;20110;-70
2021/05/17 08:24:49;;;;;;;2.63;0.60;;;11.90;79.30;;;;;;5032542;28;20212;-70
2021/05/17 08:27:15;;;;;;;1.23;0.47;;;11.90;79.30;;;;;;5032128;28;20017;-72
2021/05/17 08:29:41;;;;;;;2.00;0.85;;;11.90;79.20;;;;;;5029059;28;20026;-70
2021/05/17 08:32:10;;;;;;;2.05;0.40;;;11.90;79.20;;;;;;5033262;28;20496;-71
2021/05/17 08:34:36;;;;;;;1.30;0.40;;;12.00;79.00;;;;;;5014670;28;20025;-70
2021/05/17 08:37:03;;;;;;;0.57;0.50;;;12.00;78.90;;;;;;5033056;28;20029;-70
2021/05/17 08:39:29;;;;;;;0.65;0.32;;;12.20;78.60;;;;;;5032194;28;20026;-71
2021/05/17 08:41:57;;;;;;;4.07;0.50;;;12.20;78.60;;;;;;5032925;28;20076;-70
2021/05/17 08:44:24;;;;;;;2.75;0.40;;;12.10;78.30;;;;;;5030340;28;20053;-70
2021/05/17 08:46:49;;;;;;;1.63;0.43;;;12.10;78.20;;;;;;5032081;28;20037;-70
2021/05/17 08:49:16;;;;;;;1.98;0.40;;;12.00;78.20;;;;;;5028590;28;20029;-70
2021/05/17 08:51:42;;;;;;;1.45;0.50;;;12.00;78.10;;;;;;4997670;28;20022;-70
2021/05/17 08:54:09;;;;;;;1.00;0.40;;;11.80;77.90;;;;;;5027390;28;20022;-70
2021/05/17 08:56:39;;;;;;;3.72;0.52;;;11.80;78.10;;;;;;5029735;28;20374;-70
2021/05/17 08:59:05;;;;;;;2.88;0.30;;;11.80;78.00;;;;;;5014428;28;20032;-70
2021/05/17 09:01:32;;;;;;;2.72;0.77;;;11.80;77.70;;;;;;5032819;28;20025;-70
2021/05/17 09:04:11;;;;;;;2.97;0.63;;;11.80;77.80;;;;;;5031154;28;20026;-71
2021/05/17 09:06:42;;;;;;;1.70;0.40;;;11.80;77.80;;;;;;5012469;28;20026;-71
2021/05/17 09:09:32;;;;;;;1.50;0.40;;;11.80;77.80;;;;;;5036030;28;20048;-71
2021/05/17 09:12:04;;;;;;;0.70;0.40;;;12.00;77.40;;;;;;5014388;28;20504;-70
2021/05/17 09:14:32;;;;;;;5.10;0.50;;;12.30;77.00;;;;;;5031329;28;20469;-71
2021/05/17 09:17:00;;;;;;;1.45;0.30;;;12.50;76.80;;;;;;5032661;28;20030;-71
2021/05/17 09:19:28;;;;;;;1.77;0.75;;;12.60;76.40;;;;;;5032329;28;20025;-70
2021/05/17 09:22:05;;;;;;;2.22;0.47;;;12.80;76.30;;;;;;5013923;28;20038;-71
2021/05/17 09:24:43;;;;;;;1.25;0.32;;;13.30;75.50;;;;;;5013545;28;20081;-71
2021/05/17 09:27:11;;;;;;;2.70;0.43;;;13.60;74.60;;;;;;5032273;28;20024;-71
2021/05/17 09:29:43;;;;;;;2.08;0.38;;;13.70;74.60;;;;;;5032042;28;20335;-71
2021/05/17 09:32:11;;;;;;;6.20;0.50;;;13.50;74.10;;;;;;5032203;28;20029;-71
2021/05/17 09:34:37;;;;;;;2.30;0.40;;;13.40;74.50;;;;;;5031219;28;20026;-71
2021/05/17 09:37:08;;;;;;;1.75;0.50;;;13.30;74.40;;;;;;5013021;28;20021;-71
2021/05/17 09:39:35;;;;;;;3.35;0.73;;;13.40;73.50;;;;;;5039940;28;20117;-72
2021/05/17 09:42:04;;;;;;;1.27;0.63;;;13.30;73.30;;;;;;5031805;28;20065;-69
2021/05/17 09:44:30;;;;;;;0.73;0.40;;;13.20;73.60;;;;;;5013192;28;20048;-69
2021/05/17 09:47:00;;;;;;;6.45;0.55;;;13.50;73.80;;;;;;5031937;28;20124;-71
2021/05/17 09:49:42;;;;;;;1.17;0.50;;;13.50;73.40;;;;;;5032196;28;20493;-70
2021/05/17 09:52:15;;;;;;;2.85;0.60;;;13.50;73.10;;;;;;5031827;28;20398;-70
2021/05/17 09:54:46;;;;;;;3.30;0.60;;;13.50;73.20;;;;;;5024966;28;20021;-70
2021/05/17 09:57:16;;;;;;;3.45;0.47;;;13.40;73.10;;;;;;5024101;28;20037;-70
2021/05/17 09:59:50;;;;;;;2.60;0.50;;;13.30;73.10;;;;;;5013672;28;20042;-71
2021/05/17 10:02:32;;;;;;;3.65;0.50;;;13.30;72.90;;;;;;5031335;28;20038;-71
2021/05/17 10:05:08;;;;;;;4.57;0.60;;;13.20;72.70;;;;;;5029737;28;20481;-70
2021/05/17 10:07:33;;;;;;;2.72;0.52;;;13.00;72.90;;;;;;5032594;28;20029;-71
2021/05/17 10:10:00;;;;;;;2.67;0.43;;;12.80;73.10;;;;;;5037407;28;20018;-71
2021/05/17 10:12:26;;;;;;;3.95;0.60;;;12.60;73.60;;;;;;5031984;28;20027;-72
2021/05/17 10:14:52;;;;;;;2.60;0.70;;;12.50;74.30;;;;;;5031388;28;20030;-72
2021/05/17 10:17:18;;;;;;;0.77;0.45;;;12.40;75.20;;;;;;5031619;28;20497;-72
2021/05/17 10:19:43;;;;;;;3.08;0.63;;;12.40;75.60;;;;;;5030575;28;20404;-72
2021/05/17 10:22:09;;;;;;;3.20;0.50;;;12.40;76.30;;;;;;5031073;28;20048;-72
2021/05/17 10:24:35;;;;;;;1.80;0.70;;;12.60;76.40;;;;;;5028567;28;20433;-71
2021/05/17 10:27:02;;;;;;;3.53;0.73;;;12.70;76.80;;;;;;5031320;28;20036;-72
2021/05/17 10:29:36;;;;;;;1.33;0.55;;;12.90;77.00;;;;;;5014269;28;20548;-72
2021/05/17 10:32:04;;;;;;;1.95;0.60;;;13.10;77.10;;;;;;5031043;28;20033;-71
2021/05/17 10:34:30;;;;;;;1.15;0.50;;;13.20;77.00;;;;;;5029677;28;20029;-72
2021/05/17 10:37:00;;;;;;;2.40;0.70;;;13.40;77.20;;;;;;5013102;28;20033;-71
2021/05/17 10:39:42;;;;;;;2.10;0.50;;;13.50;76.70;;;;;;5039436;28;20036;-71
2021/05/17 10:48:14;;;;;;;3.58;0.75;;;13.50;77.70;;;;;;5028852;28;20040;-71
2021/05/17 10:50:43;;;;;;;2.00;0.60;;;13.50;77.50;;;;;;5029064;28;20087;-71
2021/05/17 10:53:40;;;;;;;0.80;0.40;;;13.60;77.50;;;;;;5030459;28;20100;-71
2021/05/17 10:56:05;;;;;;;3.15;0.80;;;14.00;78.30;;;;;;5024975;28;20045;-71
2021/05/17 11:02:10;;;;;;;78.60;49.70;;;14.50;77.90;;;;;;5030618;28;20480;-71
2021/05/17 11:04:40;;;;;;;2.83;1.27;;;14.50;77.60;;;;;;5011938;28;20028;-71
2021/05/17 11:07:09;;;;;;;3.13;0.85;;;14.30;77.20;;;;;;5012686;28;20188;-71
2021/05/17 11:09:53;;;;;;;4.25;1.15;;;14.20;76.90;;;;;;5019194;28;20025;-71
2021/05/17 11:12:28;;;;;;;5.10;1.02;;;14.00;77.00;;;;;;5030319;28;20044;-71
2021/05/17 11:15:15;;;;;;;2.00;0.80;;;13.90;77.00;;;;;;5011502;28;20083;-71
2021/05/17 11:18:05;;;;;;;1.08;0.55;;;13.70;76.60;;;;;;5028342;28;20022;-71
2021/05/17 11:20:40;;;;;;;1.13;0.32;;;13.40;76.20;;;;;;5029158;28;20121;-71
2021/05/17 11:23:09;;;;;;;1.48;0.40;;;13.10;76.60;;;;;;5022741;28;20483;-70
2021/05/17 11:25:46;;;;;;;1.65;0.45;;;12.80;76.50;;;;;;5025731;28;20473;-72
2021/05/17 11:28:12;;;;;;;0.75;0.30;;;12.50;76.90;;;;;;5026247;28;20029;-73
2021/05/17 11:30:38;;;;;;;0.80;0.30;;;12.20;76.20;;;;;;5029580;28;20044;-74
2021/05/17 11:33:12;;;;;;;0.65;0.20;;;11.80;76.70;;;;;;5012767;28;20037;-73
2021/05/17 11:35:37;;;;;;;0.20;0.20;;;11.50;77.40;;;;;;5028535;28;20025;-73
2021/05/17 11:38:09;;;;;;;0.63;0.20;;;11.20;77.60;;;;;;5036618;28;20036;-73
2021/05/17 11:40:34;;;;;;;0.30;0.30;;;11.00;78.20;;;;;;5012594;28;20091;-74
2021/05/17 11:43:00;;;;;;;0.47;0.28;;;11.00;78.50;;;;;;5029660;28;20029;-73
2021/05/17 11:45:26;;;;;;;2.28;0.32;;;10.80;78.70;;;;;;5028646;28;20053;-73
2021/05/17 11:47:52;;;;;;;0.73;0.20;;;11.00;79.40;;;;;;5008545;28;20024;-73
2021/05/17 11:50:20;;;;;;;0.30;0.30;;;11.40;79.70;;;;;;5010859;28;20028;-74
2021/05/17 11:52:46;;;;;;;0.38;0.30;;;11.70;80.30;;;;;;5011983;28;20064;-73
2021/05/17 11:55:12;;;;;;;0.38;0.22;;;12.00;80.50;;;;;;5028993;28;20204;-73
2021/05/17 11:57:41;;;;;;;0.73;0.40;;;12.30;80.60;;;;;;5029850;28;20025;-73
2021/05/17 12:00:09;;;;;;;0.55;0.30;;;12.40;80.00;;;;;;5011582;28;20029;-72
2021/05/17 12:02:41;;;;;;;0.30;0.30;;;12.50;79.50;;;;;;5029562;28;20022;-73
2021/05/17 12:05:07;;;;;;;2.10;0.40;;;12.50;79.10;;;;;;5028831;28;20450;-73
2021/05/17 12:07:45;;;;;;;0.60;0.30;;;12.50;78.90;;;;;;5025214;28;20048;-72
2021/05/17 12:10:12;;;;;;;2.63;0.40;;;12.40;78.70;;;;;;5033410;28;20020;-72
2021/05/17 12:12:38;;;;;;;0.55;0.30;;;12.40;78.90;;;;;;5029538;28;20033;-73
2021/05/17 12:15:05;;;;;;;1.75;0.50;;;12.40;78.60;;;;;;5011179;28;20522;-73
2021/05/17 12:17:33;;;;;;;1.70;0.40;;;12.40;78.70;;;;;;5010855;28;20057;-72
2021/05/17 12:20:10;;;;;;;1.88;0.50;;;12.40;78.80;;;;;;5011822;28;20112;-73
2021/05/17 12:22:43;;;;;;;0.75;0.30;;;12.40;79.10;;;;;;5029608;28;20476;-72
2021/05/17 12:25:11;;;;;;;0.77;0.40;;;12.40;78.60;;;;;;5028531;28;20041;-72
2021/05/17 12:27:39;;;;;;;0.77;0.40;;;12.40;78.40;;;;;;5029678;28;20354;-73
2021/05/17 12:30:14;;;;;;;1.60;0.40;;;12.40;78.70;;;;;;5011792;28;20053;-72
2021/05/17 12:33:12;;;;;;;1.75;0.40;;;12.60;79.20;;;;;;5012617;28;20044;-72
2021/05/17 12:35:39;;;;;;;1.65;0.50;;;13.00;79.60;;;;;;4956343;28;20481;-72
2021/05/17 12:38:18;;;;;;;1.02;0.40;;;13.10;79.50;;;;;;5011389;28;20448;-72
2021/05/17 12:40:47;;;;;;;1.02;0.38;;;13.40;79.70;;;;;;5020274;28;20030;-73
2021/05/17 12:43:37;;;;;;;0.43;0.30;;;13.60;79.10;;;;;;5011565;28;20588;-73
2021/05/17 12:46:06;;;;;;;0.50;0.20;;;13.90;79.20;;;;;;5028473;28;20030;-72
2021/05/17 12:48:41;;;;;;;0.68;0.50;;;14.10;78.40;;;;;;5030965;28;20083;-72
2021/05/17 12:51:17;;;;;;;2.17;0.47;;;14.20;78.10;;;;;;5014608;28;20021;-72
2021/05/17 12:53:44;;;;;;;0.47;0.30;;;14.40;77.50;;;;;;5017602;28;20041;-72
2021/05/17 12:56:21;;;;;;;1.23;0.30;;;14.30;77.30;;;;;;5023167;28;20088;-70
2021/05/17 12:58:47;;;;;;;0.40;0.20;;;14.30;76.50;;;;;;5010936;28;20029;-72
2021/05/17 13:01:15;;;;;;;0.20;0.20;;;14.10;75.80;;;;;;5015092;28;20040;-73
2021/05/17 13:03:47;;;;;;;0.20;0.20;;;14.00;76.10;;;;;;5032943;28;20104;-73
2021/05/17 13:06:18;;;;;;;1.03;0.30;;;14.00;75.90;;;;;;5030395;28;20401;-72
2021/05/17 13:08:50;;;;;;;1.85;0.30;;;13.90;75.60;;;;;;5031173;28;20022;-72
2021/05/17 13:11:40;;;;;;;0.55;0.40;;;13.90;75.90;;;;;;5022366;28;20034;-73
2021/05/17 13:14:25;;;;;;;1.77;0.50;;;13.90;76.10;;;;;;5011924;28;20066;-73
2021/05/17 13:16:55;;;;;;;0.22;0.22;;;13.90;75.80;;;;;;4997212;28;20033;-72
2021/05/17 13:33:48;;;;;;;1.20;0.40;;;13.60;76.90;;;;;;5020551;28;20029;-72
2021/05/17 13:36:20;;;;;;;0.15;0.15;;;13.70;76.70;;;;;;5020105;28;20521;-73